Greenwood, Arkansas
Current Conditions -  °F | °C
As of 10:53 PM on Wednesday 22 Oct 2014 (Local Time) from KFSM Reporting Station
Clear Clear  
Wind Chill: 59°   Ceiling: Unl
Heat Index: 59°   Visibility: 10mi
Dew Point: 53°   Wind: 5mph
Humidity: 81%   Direction: 50°NE
Pressure: 30.17"   Gusts: NA
Location:  35.22°N, 94.26°W
Report Text: KFSM 230353Z AUTO 05004KT 10SM CLR 15/12 A3017 RMK AO2 SLP215 T01500117
Loading
Personal Weather Stations






























Interactive Weather Map New forecast layout! Learn more

10-Day Weather Forecast

Advertisements
Track Severe Weather on mobile